createdAt,value
2018-06-08T00:00:23.872Z,12.07
2018-06-08T00:02:52.030Z,12.00
2018-06-08T00:05:20.221Z,11.07
2018-06-08T00:07:48.395Z,11.03
2018-06-08T00:10:16.548Z,11.83
2018-06-08T00:12:44.736Z,11.67
2018-06-08T00:15:12.950Z,11.37
2018-06-08T00:17:41.153Z,11.53
2018-06-08T00:20:09.316Z,11.97
2018-06-08T00:22:37.532Z,12.30
2018-06-08T00:25:05.848Z,12.13
2018-06-08T00:27:34.068Z,12.40
2018-06-08T00:30:02.266Z,12.57
2018-06-08T00:32:30.492Z,12.73
2018-06-08T00:34:58.667Z,12.77
2018-06-08T00:37:26.869Z,13.57
2018-06-08T00:39:55.056Z,13.83
2018-06-08T00:42:23.233Z,13.97
2018-06-08T00:44:51.489Z,13.77
2018-06-08T00:47:19.664Z,14.30
2018-06-08T00:49:47.845Z,13.83
2018-06-08T00:52:16.025Z,14.10
2018-06-08T00:54:44.200Z,13.77
2018-06-08T00:57:12.365Z,14.00
2018-06-08T00:59:40.561Z,14.20
2018-06-08T01:02:08.750Z,14.57
2018-06-08T01:04:37.015Z,14.20
2018-06-08T01:07:05.196Z,15.97
2018-06-08T01:09:33.396Z,16.70
2018-06-08T01:12:01.563Z,16.83
2018-06-08T01:14:32.021Z,17.47
2018-06-08T01:17:00.472Z,16.90
2018-06-08T01:19:31.443Z,16.77
2018-06-08T01:21:59.629Z,17.80
2018-06-08T01:24:28.070Z,16.13
2018-06-08T01:26:56.304Z,17.07
2018-06-08T01:29:24.478Z,16.00
2018-06-08T01:31:52.701Z,15.53
2018-06-08T01:34:20.876Z,16.57
2018-06-08T01:36:49.104Z,17.33
2018-06-08T01:39:17.305Z,17.80
2018-06-08T01:41:45.488Z,18.10
2018-06-08T01:44:13.690Z,18.97
2018-06-08T01:46:41.891Z,17.90
2018-06-08T01:49:10.100Z,16.53
2018-06-08T01:51:38.301Z,17.53
2018-06-08T01:54:06.482Z,17.10
2018-06-08T01:56:34.675Z,16.80
2018-06-08T01:59:02.865Z,16.70
2018-06-08T02:01:31.039Z,16.47
2018-06-08T02:03:59.225Z,16.40
2018-06-08T02:06:27.401Z,16.23
2018-06-08T02:08:55.775Z,17.97
2018-06-08T02:11:23.970Z,17.37
2018-06-08T02:13:52.163Z,17.87
2018-06-08T02:16:20.335Z,18.20
2018-06-08T02:18:48.521Z,18.43
2018-06-08T02:21:16.713Z,19.07
2018-06-08T02:23:44.935Z,18.27
2018-06-08T02:26:13.134Z,18.17
2018-06-08T02:28:41.644Z,18.30
2018-06-08T02:31:09.805Z,17.60
2018-06-08T02:33:37.746Z,17.37
2018-06-08T02:36:06.012Z,17.10
2018-06-08T02:38:34.204Z,17.30
2018-06-08T02:41:02.345Z,16.67
2018-06-08T02:43:30.522Z,17.40
2018-06-08T02:45:58.693Z,17.40
2018-06-08T02:48:26.887Z,17.33
2018-06-08T02:50:55.076Z,17.27
2018-06-08T02:53:23.266Z,18.07
2018-06-08T02:55:51.449Z,18.30
2018-06-08T02:58:19.673Z,17.10
2018-06-08T03:00:47.869Z,19.17
2018-06-08T03:03:16.044Z,19.37
2018-06-08T03:05:44.249Z,20.07
2018-06-08T03:08:12.422Z,20.20
2018-06-08T03:10:40.646Z,21.17
2018-06-08T03:13:08.825Z,22.77
2018-06-08T03:15:37.035Z,23.00
2018-06-08T03:18:05.269Z,25.07
2018-06-08T03:20:33.538Z,23.77
2018-06-08T03:23:01.714Z,24.73
2018-06-08T03:25:29.968Z,24.50
2018-06-08T03:27:58.140Z,24.43
2018-06-08T03:30:26.347Z,24.77
2018-06-08T03:32:54.560Z,25.37
2018-06-08T03:35:22.824Z,26.13
2018-06-08T03:37:51.023Z,26.70
2018-06-08T03:40:19.224Z,25.93
2018-06-08T03:42:47.400Z,25.83
2018-06-08T03:45:15.627Z,26.43
2018-06-08T03:47:43.780Z,26.57
2018-06-08T03:50:11.978Z,25.73
2018-06-08T03:52:40.156Z,26.50
2018-06-08T03:55:08.348Z,26.13
2018-06-08T03:57:36.560Z,26.60
2018-06-08T04:00:04.769Z,27.40
2018-06-08T04:02:32.962Z,26.73
2018-06-08T04:05:01.160Z,27.70
2018-06-08T04:07:30.106Z,28.47
2018-06-08T04:09:58.062Z,27.30
2018-06-08T04:12:26.292Z,28.67
2018-06-08T04:14:54.493Z,28.50
2018-06-08T04:17:22.701Z,29.63
2018-06-08T04:19:50.896Z,29.17
2018-06-08T04:22:19.126Z,29.80
2018-06-08T04:24:47.329Z,29.27
2018-06-08T04:27:15.537Z,30.57
2018-06-08T04:29:43.712Z,29.33
2018-06-08T04:32:11.912Z,29.43
2018-06-08T04:34:40.132Z,29.63
2018-06-08T04:37:08.325Z,29.60
2018-06-08T04:39:36.513Z,30.63
2018-06-08T04:42:04.731Z,30.93
2018-06-08T04:44:32.920Z,31.70
2018-06-08T04:47:01.118Z,34.03
2018-06-08T04:49:29.313Z,35.40
2018-06-08T04:51:57.827Z,33.60
2018-06-08T04:54:25.994Z,34.27
2018-06-08T04:56:54.237Z,35.77
2018-06-08T04:59:22.707Z,35.43
2018-06-08T05:01:50.911Z,37.00
2018-06-08T05:04:19.106Z,39.27
2018-06-08T05:06:47.285Z,40.47
2018-06-08T05:09:15.485Z,39.63
2018-06-08T05:11:43.697Z,40.03
2018-06-08T05:14:11.929Z,40.30
2018-06-08T05:16:40.128Z,41.63
2018-06-08T05:19:08.359Z,43.23
2018-06-08T05:21:36.556Z,43.00
2018-06-08T05:24:04.859Z,40.47
2018-06-08T05:26:33.648Z,43.20
2018-06-08T05:29:01.857Z,43.47
2018-06-08T05:31:30.353Z,45.90
2018-06-08T05:33:59.262Z,45.53
2018-06-08T05:36:27.426Z,43.43
2018-06-08T05:38:55.669Z,44.40
2018-06-08T05:41:23.892Z,44.87
2018-06-08T05:43:52.019Z,43.73
2018-06-08T05:46:21.941Z,43.90
2018-06-08T05:48:50.297Z,44.33
2018-06-08T05:51:18.449Z,43.67
2018-06-08T05:53:46.615Z,43.67
2018-06-08T05:56:14.745Z,43.53
2018-06-08T05:58:42.909Z,43.17
2018-06-08T06:01:11.084Z,43.03
2018-06-08T06:03:39.502Z,42.30
2018-06-08T06:06:07.666Z,43.57
2018-06-08T06:08:35.861Z,42.87
2018-06-08T06:11:04.058Z,42.77
2018-06-08T06:13:32.251Z,42.83
2018-06-08T06:16:00.405Z,40.57
2018-06-08T06:18:28.929Z,43.23
2018-06-08T06:20:57.100Z,43.93
2018-06-08T06:23:25.264Z,43.63
2018-06-08T06:25:53.438Z,42.33
2018-06-08T06:28:21.617Z,41.87
2018-06-08T06:30:49.793Z,41.03
2018-06-08T06:33:17.983Z,41.97
2018-06-08T06:35:46.197Z,41.57
2018-06-08T06:38:14.416Z,42.30
2018-06-08T06:40:42.613Z,42.80
2018-06-08T06:43:10.812Z,41.43
2018-06-08T06:45:38.969Z,42.87
2018-06-08T06:48:06.897Z,43.07
2018-06-08T06:50:35.093Z,43.30
2018-06-08T06:53:03.282Z,42.73
2018-06-08T06:55:31.664Z,42.33
2018-06-08T06:57:59.836Z,41.20
2018-06-08T07:00:28.002Z,40.33
2018-06-08T07:02:56.197Z,38.47
2018-06-08T07:05:24.380Z,38.00
2018-06-08T07:07:52.546Z,36.73
2018-06-08T07:10:20.780Z,35.10
2018-06-08T07:12:48.993Z,38.03
2018-06-08T07:15:17.141Z,36.77
2018-06-08T07:17:45.349Z,35.80
2018-06-08T07:20:13.546Z,35.27
2018-06-08T07:22:41.705Z,36.40
2018-06-08T07:25:10.065Z,34.67
2018-06-08T07:27:38.272Z,34.87
2018-06-08T07:30:06.451Z,34.77
2018-06-08T07:32:34.647Z,33.87
2018-06-08T07:35:02.807Z,34.97
2018-06-08T07:37:30.956Z,35.67
2018-06-08T07:39:59.178Z,35.03
2018-06-08T07:42:27.334Z,31.23
2018-06-08T07:44:55.505Z,29.70
2018-06-08T07:47:23.893Z,32.37
2018-06-08T07:49:52.063Z,32.90
2018-06-08T07:52:20.236Z,31.53
2018-06-08T07:54:48.428Z,34.47
2018-06-08T07:57:16.592Z,32.47
2018-06-08T07:59:44.784Z,31.23
2018-06-08T08:02:13.055Z,31.60
2018-06-08T08:04:41.434Z,30.37
2018-06-08T08:07:09.604Z,31.23
2018-06-08T08:19:59.422Z,31.33
2018-06-08T08:22:27.570Z,30.57
2018-06-08T08:24:55.764Z,30.73
2018-06-08T08:27:23.969Z,30.70
2018-06-08T08:29:52.407Z,29.33
2018-06-08T08:32:20.608Z,29.60
2018-06-08T08:34:48.802Z,31.03
2018-06-08T08:37:17.008Z,30.93
2018-06-08T08:39:45.287Z,31.10
2018-06-08T08:42:13.478Z,30.77
2018-06-08T08:44:41.711Z,29.73
2018-06-08T08:47:09.890Z,29.97
2018-06-08T08:49:38.093Z,28.50
2018-06-08T08:52:06.314Z,27.80
2018-06-08T08:54:34.708Z,24.97
2018-06-08T08:57:03.080Z,23.43
2018-06-08T08:59:31.217Z,23.67
2018-06-08T09:01:59.397Z,23.40
2018-06-08T09:04:27.562Z,23.97
2018-06-08T09:06:55.725Z,24.40
2018-06-08T09:09:23.905Z,24.93
2018-06-08T09:11:52.097Z,24.73
2018-06-08T09:14:20.786Z,27.40
2018-06-08T09:16:48.976Z,25.77
2018-06-08T09:19:17.507Z,25.03
2018-06-08T09:21:45.693Z,25.80
2018-06-08T09:24:13.885Z,26.93
2018-06-08T09:26:42.086Z,27.60
2018-06-08T09:29:10.270Z,28.67
2018-06-08T09:31:38.872Z,29.10
2018-06-08T09:34:07.056Z,30.07
2018-06-08T09:36:35.241Z,28.70
2018-06-08T09:39:03.813Z,28.93
2018-06-08T09:41:32.006Z,31.13
2018-06-08T09:44:00.208Z,32.03
2018-06-08T09:46:28.436Z,30.23
2018-06-08T09:48:56.590Z,31.40
2018-06-08T09:51:24.769Z,31.83
2018-06-08T09:53:52.917Z,31.87
2018-06-08T09:56:21.100Z,31.30
2018-06-08T09:58:49.253Z,30.07
2018-06-08T10:01:17.409Z,30.90
2018-06-08T10:03:45.614Z,30.67
2018-06-08T10:06:13.760Z,31.17
2018-06-08T10:08:41.941Z,33.23
2018-06-08T10:11:10.137Z,32.90
2018-06-08T10:13:38.286Z,30.93
2018-06-08T10:16:06.476Z,33.27
2018-06-08T10:18:34.676Z,31.30
2018-06-08T10:21:02.836Z,30.13
2018-06-08T10:23:31.020Z,28.87
2018-06-08T10:25:59.542Z,29.03
2018-06-08T10:28:27.755Z,30.57
2018-06-08T10:30:55.951Z,30.33
2018-06-08T10:33:24.165Z,31.53
2018-06-08T10:35:52.326Z,30.80
2018-06-08T10:38:20.521Z,29.90
2018-06-08T10:40:48.719Z,29.73
2018-06-08T10:43:16.860Z,29.00
2018-06-08T10:45:45.037Z,29.43
2018-06-08T10:48:13.249Z,29.53
2018-06-08T10:50:41.451Z,29.93
2018-06-08T10:53:09.607Z,28.67
2018-06-08T10:55:37.796Z,30.27
2018-06-08T10:58:05.963Z,28.70
2018-06-08T11:00:34.149Z,28.90
2018-06-08T11:03:02.365Z,29.50
2018-06-08T11:05:30.578Z,29.43
2018-06-08T11:07:58.498Z,29.80
2018-06-08T11:10:26.685Z,28.93
2018-06-08T11:12:54.897Z,29.83
2018-06-08T11:15:23.123Z,29.93
2018-06-08T11:17:51.331Z,30.17
2018-06-08T11:20:19.501Z,29.50
2018-06-08T11:22:47.666Z,27.87
2018-06-08T11:25:15.891Z,26.03
2018-06-08T11:27:44.036Z,29.30
2018-06-08T11:30:12.205Z,28.80
2018-06-08T11:32:40.397Z,27.83
2018-06-08T11:35:08.610Z,30.77
2018-06-08T11:37:36.884Z,32.77
2018-06-08T11:40:05.145Z,34.33
2018-06-08T11:42:33.392Z,34.47
2018-06-08T11:45:01.344Z,32.63
2018-06-08T11:47:29.561Z,32.20
2018-06-08T11:49:57.779Z,29.47
2018-06-08T11:52:26.003Z,28.10
2018-06-08T11:54:54.202Z,26.80
2018-06-08T11:57:22.442Z,26.37
2018-06-08T11:59:50.650Z,27.67
2018-06-08T12:02:18.867Z,27.43
2018-06-08T12:04:47.053Z,27.43
2018-06-08T12:07:15.286Z,26.67
2018-06-08T12:09:43.788Z,27.30
2018-06-08T12:12:11.980Z,27.87
2018-06-08T12:14:40.178Z,26.73
2018-06-08T12:17:08.420Z,25.53
2018-06-08T12:19:36.869Z,26.43
2018-06-08T12:22:05.059Z,25.50
2018-06-08T12:24:34.057Z,24.93
2018-06-08T12:27:02.359Z,27.40
2018-06-08T12:29:31.149Z,28.17
2018-06-08T12:31:59.308Z,29.43
2018-06-08T12:34:28.067Z,28.70
2018-06-08T12:36:56.640Z,32.13
2018-06-08T12:39:24.855Z,31.10
2018-06-08T12:41:52.988Z,32.07
2018-06-08T12:44:21.116Z,33.00
2018-06-08T12:46:49.266Z,32.30
2018-06-08T12:49:17.417Z,28.40
2018-06-08T12:51:45.592Z,33.43
2018-06-08T12:54:13.744Z,33.90
2018-06-08T12:56:41.877Z,34.47
2018-06-08T12:59:10.040Z,33.20
2018-06-08T13:01:39.387Z,29.33
2018-06-08T13:04:07.529Z,27.20
2018-06-08T13:06:35.651Z,25.27
2018-06-08T13:09:05.498Z,25.40
2018-06-08T13:11:33.665Z,26.63
2018-06-08T13:14:02.026Z,25.77
2018-06-08T13:16:29.873Z,27.10
2018-06-08T13:18:58.098Z,27.80
2018-06-08T13:21:30.089Z,27.73
2018-06-08T13:23:58.335Z,27.40
2018-06-08T13:26:26.797Z,27.83
2018-06-08T13:28:54.986Z,27.60
2018-06-08T13:31:23.180Z,27.13
2018-06-08T13:33:51.380Z,28.53
2018-06-08T13:36:19.576Z,27.57
2018-06-08T13:38:47.836Z,27.20
2018-06-08T13:41:16.703Z,27.40
2018-06-08T13:43:44.900Z,27.10
2018-06-08T13:46:52.907Z,28.90
2018-06-08T13:49:21.167Z,29.10
2018-06-08T13:51:51.164Z,31.10
2018-06-08T13:54:19.369Z,31.20
2018-06-08T13:56:47.686Z,32.27
2018-06-08T13:59:16.849Z,32.60
2018-06-08T14:01:45.066Z,33.07
2018-06-08T14:04:13.300Z,33.13
2018-06-08T14:06:42.229Z,33.40
2018-06-08T14:09:11.978Z,33.23
2018-06-08T14:11:40.164Z,32.53
2018-06-08T14:14:08.343Z,32.63
2018-06-08T14:16:36.558Z,33.23
2018-06-08T14:19:04.917Z,34.33
2018-06-08T14:21:33.113Z,33.30
2018-06-08T14:24:01.653Z,35.80
2018-06-08T14:26:29.893Z,34.73
2018-06-08T14:28:58.111Z,33.53
2018-06-08T14:31:26.369Z,33.73
2018-06-08T14:33:54.571Z,33.83
2018-06-08T14:36:23.074Z,33.07
2018-06-08T14:38:51.290Z,31.47
2018-06-08T14:41:19.517Z,33.03
2018-06-08T14:43:47.731Z,33.33
2018-06-08T14:46:16.388Z,32.53
2018-06-08T14:48:44.892Z,32.77
2018-06-08T14:51:13.081Z,33.40
2018-06-08T14:53:41.375Z,33.57
2018-06-08T14:56:09.563Z,33.23
2018-06-08T14:58:37.712Z,33.97
2018-06-08T15:01:06.325Z,35.40
2018-06-08T15:03:34.490Z,35.40
2018-06-08T15:06:02.408Z,35.00
2018-06-08T15:08:30.580Z,37.00
2018-06-08T15:10:58.741Z,35.60
2018-06-08T15:13:26.898Z,35.80
2018-06-08T15:15:55.254Z,34.73
2018-06-08T15:18:23.445Z,31.83
2018-06-08T15:20:51.664Z,35.70
2018-06-08T15:23:20.160Z,34.83
2018-06-08T15:25:48.349Z,35.37
2018-06-08T15:28:16.486Z,36.07
2018-06-08T15:30:44.670Z,32.47
2018-06-08T15:33:12.859Z,34.37
2018-06-08T15:35:41.017Z,32.73
2018-06-08T15:38:09.187Z,32.80
2018-06-08T15:40:37.141Z,33.43
2018-06-08T15:43:05.317Z,31.80
2018-06-08T15:45:33.498Z,31.10
2018-06-08T15:48:01.675Z,30.37
2018-06-08T15:50:29.833Z,29.83
2018-06-08T15:52:58.042Z,30.80
2018-06-08T15:55:26.213Z,30.27
2018-06-08T15:57:54.425Z,29.83
2018-06-08T16:00:22.738Z,28.87
2018-06-08T16:02:50.887Z,27.13
2018-06-08T16:05:19.038Z,26.83
2018-06-08T16:07:47.236Z,28.33
2018-06-08T16:10:15.432Z,28.27
2018-06-08T16:12:43.607Z,28.07
2018-06-08T16:15:11.784Z,27.87
2018-06-08T16:17:39.949Z,28.47
2018-06-08T16:20:08.122Z,29.70
2018-06-08T16:22:36.382Z,30.47
2018-06-08T16:25:04.487Z,27.53
2018-06-08T16:27:32.648Z,29.77
2018-06-08T16:30:00.853Z,29.03
2018-06-08T16:32:29.024Z,30.07
2018-06-08T16:34:57.252Z,29.00
2018-06-08T16:37:25.422Z,28.87
2018-06-08T16:58:05.089Z,30.43
2018-06-08T17:00:33.295Z,30.47
2018-06-08T17:03:01.507Z,29.37
2018-06-08T17:05:29.872Z,29.90
2018-06-08T17:07:58.048Z,29.97
2018-06-08T17:10:26.356Z,29.70
2018-06-08T17:12:54.527Z,30.07
2018-06-08T17:15:22.741Z,29.63
2018-06-08T17:17:51.200Z,30.27
2018-06-08T17:20:19.117Z,29.13
2018-06-08T17:22:47.280Z,28.70
2018-06-08T17:25:15.525Z,27.90
2018-06-08T17:27:43.858Z,28.63
2018-06-08T17:30:12.071Z,30.07
2018-06-08T17:32:40.262Z,29.70
2018-06-08T17:35:08.516Z,27.90
2018-06-08T17:37:36.681Z,31.03
2018-06-08T17:40:04.992Z,31.07
2018-06-08T17:42:33.188Z,31.17
2018-06-08T17:45:01.380Z,31.77
2018-06-08T17:47:29.586Z,30.43
2018-06-08T17:49:57.747Z,32.23
2018-06-08T17:52:25.963Z,30.00
2018-06-08T17:54:54.142Z,30.30
2018-06-08T17:57:22.321Z,31.13
2018-06-08T17:59:50.479Z,31.23
2018-06-08T18:02:18.668Z,29.70
2018-06-08T18:04:46.853Z,29.90
2018-06-08T18:07:15.025Z,28.53
2018-06-08T18:09:43.280Z,27.57
2018-06-08T18:12:11.454Z,27.23
2018-06-08T18:14:39.619Z,27.07
2018-06-08T18:17:07.832Z,27.37
2018-06-08T18:19:36.010Z,26.70
2018-06-08T18:22:04.228Z,26.30
2018-06-08T18:24:32.512Z,26.33
2018-06-08T18:27:00.693Z,26.67
2018-06-08T18:29:28.882Z,25.77
2018-06-08T18:31:57.186Z,26.97
2018-06-08T18:34:25.404Z,27.47
2018-06-08T18:36:53.642Z,27.60
2018-06-08T18:39:21.853Z,28.10
2018-06-08T18:41:50.030Z,26.37
2018-06-08T18:44:18.466Z,28.80
2018-06-08T18:46:46.656Z,28.07
2018-06-08T18:49:14.877Z,27.87
2018-06-08T18:51:43.086Z,26.60
2018-06-08T18:54:11.277Z,27.27
2018-06-08T18:56:39.496Z,27.23
2018-06-08T18:59:07.700Z,27.03
2018-06-08T19:01:35.866Z,26.37
2018-06-08T19:04:04.358Z,26.80
2018-06-08T19:06:32.570Z,25.30
2018-06-08T19:09:00.746Z,26.37
2018-06-08T19:11:28.944Z,26.87
2018-06-08T19:13:56.912Z,26.83
2018-06-08T19:16:25.109Z,25.03
2018-06-08T19:18:53.320Z,25.37
2018-06-08T19:21:21.536Z,24.67
2018-06-08T19:23:49.765Z,25.17
2018-06-08T19:26:17.977Z,25.30
2018-06-08T19:28:46.212Z,27.70
2018-06-08T19:31:14.520Z,27.33
2018-06-08T19:33:42.676Z,25.53
2018-06-08T19:36:10.876Z,28.33
2018-06-08T19:38:39.059Z,28.60
2018-06-08T19:41:07.224Z,27.50
2018-06-08T19:43:35.422Z,29.37
2018-06-08T19:46:03.864Z,30.17
2018-06-08T19:48:32.048Z,28.57
2018-06-08T19:51:00.276Z,28.37
2018-06-08T19:53:28.488Z,28.97
2018-06-08T19:55:56.704Z,28.47
2018-06-08T19:58:24.956Z,28.70
2018-06-08T20:00:53.111Z,28.37
2018-06-08T20:03:21.606Z,28.80
2018-06-08T20:05:49.818Z,29.27
2018-06-08T20:08:18.140Z,30.43
2018-06-08T20:10:46.826Z,31.20
2018-06-08T20:13:15.088Z,31.67
2018-06-08T20:15:43.283Z,33.03
2018-06-08T20:18:11.479Z,30.33
2018-06-08T20:20:39.699Z,31.50
2018-06-08T20:23:07.917Z,31.40
2018-06-08T20:25:36.562Z,31.23
2018-06-08T20:28:04.727Z,32.63
2018-06-08T20:30:32.921Z,32.33
2018-06-08T20:33:01.101Z,33.40
2018-06-08T20:35:29.274Z,33.00
2018-06-08T20:37:57.493Z,35.17
2018-06-08T20:40:25.721Z,32.40
2018-06-08T20:42:53.879Z,34.70
2018-06-08T20:45:22.225Z,35.27
2018-06-08T20:47:50.440Z,33.10
2018-06-08T20:50:18.693Z,33.50
2018-06-08T20:52:46.936Z,33.93
2018-06-08T20:55:15.386Z,33.60
2018-06-08T20:57:55.052Z,34.13
2018-06-08T21:00:23.477Z,35.53
2018-06-08T21:02:51.689Z,35.43
2018-06-08T21:05:20.129Z,37.13
2018-06-08T21:07:48.445Z,36.80
2018-06-08T21:10:16.637Z,37.33
2018-06-08T21:12:44.871Z,36.47
2018-06-08T21:15:13.500Z,37.43
2018-06-08T21:17:41.659Z,36.43
2018-06-08T21:20:10.243Z,36.10
2018-06-08T21:22:38.435Z,36.73
2018-06-08T21:25:06.650Z,36.47
2018-06-08T21:27:35.187Z,37.17
2018-06-08T21:30:03.372Z,37.07
2018-06-08T21:32:31.589Z,38.60
2018-06-08T21:34:59.777Z,39.73
2018-06-08T21:37:27.978Z,39.50
2018-06-08T21:39:56.157Z,39.97
2018-06-08T21:42:24.639Z,40.53
2018-06-08T21:44:52.855Z,40.73
2018-06-08T21:47:21.441Z,41.03
2018-06-08T21:49:49.659Z,39.60
2018-06-08T21:52:17.873Z,41.00
2018-06-08T21:54:46.316Z,41.43
2018-06-08T21:57:14.864Z,41.63
2018-06-08T21:59:43.044Z,41.17
2018-06-08T22:02:11.225Z,40.23
2018-06-08T22:04:39.394Z,41.50
2018-06-08T22:07:07.633Z,42.20
2018-06-08T22:09:36.120Z,41.60
2018-06-08T22:12:04.331Z,41.20
2018-06-08T22:14:32.520Z,40.60
2018-06-08T22:17:00.688Z,40.90
2018-06-08T22:19:29.165Z,41.10
2018-06-08T22:21:57.349Z,44.00
2018-06-08T22:24:25.556Z,44.27
2018-06-08T22:26:53.777Z,45.23
2018-06-08T22:29:21.998Z,43.50
2018-06-08T22:31:50.184Z,44.07
2018-06-08T22:34:18.373Z,44.10
2018-06-08T22:36:46.572Z,44.13
2018-06-08T22:39:14.753Z,47.03
2018-06-08T22:41:43.246Z,46.23
2018-06-08T22:44:11.441Z,46.57
2018-06-08T22:46:39.619Z,46.73
2018-06-08T22:49:07.790Z,46.77
2018-06-08T22:51:35.965Z,48.10
2018-06-08T22:54:04.150Z,47.77
2018-06-08T22:56:32.594Z,49.77
2018-06-08T22:59:00.782Z,49.07
2018-06-08T23:01:28.969Z,49.37
2018-06-08T23:03:57.241Z,48.53
2018-06-08T23:06:25.435Z,48.57
2018-06-08T23:08:53.592Z,49.87
2018-06-08T23:11:21.812Z,47.97
2018-06-08T23:13:50.304Z,49.43
2018-06-08T23:16:18.478Z,50.63
2018-06-08T23:18:46.703Z,51.63
2018-06-08T23:21:14.899Z,54.47
2018-06-08T23:23:43.064Z,55.20
2018-06-08T23:28:46.234Z,57.43
2018-06-08T23:31:14.406Z,56.53
2018-06-08T23:33:42.588Z,57.47
2018-06-08T23:36:10.787Z,56.03
2018-06-08T23:38:38.985Z,56.00
2018-06-08T23:41:07.170Z,57.67
2018-06-08T23:43:35.362Z,58.97
2018-06-08T23:46:03.593Z,59.40
2018-06-08T23:48:31.797Z,60.27
2018-06-08T23:51:00.006Z,60.17
2018-06-08T23:53:28.368Z,60.03
2018-06-08T23:55:56.560Z,60.53
2018-06-08T23:58:24.753Z,57.57
